sensor_id;sensor_type;location;lat;lon;timestamp;P1;durP1;ratioP1;P2;durP2;ratioP2
21862;SDS011;11096;51.338;12.524;2023-03-13T00:01:42;8.73;;;3.40;;
21862;SDS011;11096;51.338;12.524;2023-03-13T00:04:10;9.77;;;3.17;;
21862;SDS011;11096;51.338;12.524;2023-03-13T00:06:36;8.85;;;3.53;;
21862;SDS011;11096;51.338;12.524;2023-03-13T00:09:03;7.57;;;3.70;;
21862;SDS011;11096;51.338;12.524;2023-03-13T00:11:30;8.48;;;3.50;;
21862;SDS011;11096;51.338;12.524;2023-03-13T00:13:57;11.38;;;3.83;;
21862;SDS011;11096;51.338;12.524;2023-03-13T00:16:24;14.30;;;4.18;;
21862;SDS011;11096;51.338;12.524;2023-03-13T00:18:51;12.77;;;4.00;;
21862;SDS011;11096;51.338;12.524;2023-03-13T00:21:20;7.88;;;3.00;;
21862;SDS011;11096;51.338;12.524;2023-03-13T00:23:46;9.07;;;4.07;;
21862;SDS011;11096;51.338;12.524;2023-03-13T00:26:13;10.00;;;3.55;;
21862;SDS011;11096;51.338;12.524;2023-03-13T00:28:41;11.40;;;3.25;;
21862;SDS011;11096;51.338;12.524;2023-03-13T00:31:11;10.43;;;3.40;;
21862;SDS011;11096;51.338;12.524;2023-03-13T00:33:42;10.52;;;3.65;;
21862;SDS011;11096;51.338;12.524;2023-03-13T00:36:10;10.50;;;3.53;;
21862;SDS011;11096;51.338;12.524;2023-03-13T00:38:37;9.27;;;3.78;;
21862;SDS011;11096;51.338;12.524;2023-03-13T00:41:04;15.70;;;4.25;;
21862;SDS011;11096;51.338;12.524;2023-03-13T00:43:30;8.25;;;3.60;;
21862;SDS011;11096;51.338;12.524;2023-03-13T00:45:56;12.05;;;3.58;;
21862;SDS011;11096;51.338;12.524;2023-03-13T00:48:22;7.38;;;3.08;;
21862;SDS011;11096;51.338;12.524;2023-03-13T00:50:47;16.42;;;3.78;;
21862;SDS011;11096;51.338;12.524;2023-03-13T00:53:13;13.85;;;4.00;;
21862;SDS011;11096;51.338;12.524;2023-03-13T00:55:39;10.63;;;3.63;;
21862;SDS011;11096;51.338;12.524;2023-03-13T00:58:14;11.88;;;3.97;;
21862;SDS011;11096;51.338;12.524;2023-03-13T01:00:39;9.43;;;3.42;;
21862;SDS011;11096;51.338;12.524;2023-03-13T01:03:05;12.85;;;3.28;;
21862;SDS011;11096;51.338;12.524;2023-03-13T01:05:30;9.20;;;3.60;;
21862;SDS011;11096;51.338;12.524;2023-03-13T01:07:55;14.57;;;3.13;;
21862;SDS011;11096;51.338;12.524;2023-03-13T01:10:21;12.52;;;3.10;;
21862;SDS011;11096;51.338;12.524;2023-03-13T01:12:46;7.45;;;2.80;;
21862;SDS011;11096;51.338;12.524;2023-03-13T01:15:12;11.05;;;3.80;;
21862;SDS011;11096;51.338;12.524;2023-03-13T01:17:37;12.98;;;3.50;;
21862;SDS011;11096;51.338;12.524;2023-03-13T01:20:03;9.15;;;3.58;;
21862;SDS011;11096;51.338;12.524;2023-03-13T01:22:29;15.20;;;3.22;;
21862;SDS011;11096;51.338;12.524;2023-03-13T01:24:54;8.27;;;3.10;;
21862;SDS011;11096;51.338;12.524;2023-03-13T01:27:20;10.18;;;2.83;;
21862;SDS011;11096;51.338;12.524;2023-03-13T01:29:45;11.95;;;2.78;;
21862;SDS011;11096;51.338;12.524;2023-03-13T01:32:11;20.58;;;3.83;;
21862;SDS011;11096;51.338;12.524;2023-03-13T01:34:36;13.98;;;3.13;;
21862;SDS011;11096;51.338;12.524;2023-03-13T01:37:01;9.43;;;2.90;;
21862;SDS011;11096;51.338;12.524;2023-03-13T01:39:27;12.13;;;2.97;;
21862;SDS011;11096;51.338;12.524;2023-03-13T01:41:52;6.63;;;2.60;;
21862;SDS011;11096;51.338;12.524;2023-03-13T01:44:22;11.98;;;3.08;;
21862;SDS011;11096;51.338;12.524;2023-03-13T01:46:51;10.65;;;2.90;;
21862;SDS011;11096;51.338;12.524;2023-03-13T01:49:18;9.13;;;2.80;;
21862;SDS011;11096;51.338;12.524;2023-03-13T01:54:20;11.40;;;2.97;;
21862;SDS011;11096;51.338;12.524;2023-03-13T01:56:51;14.30;;;3.00;;
21862;SDS011;11096;51.338;12.524;2023-03-13T01:59:25;12.75;;;3.03;;
21862;SDS011;11096;51.338;12.524;2023-03-13T02:02:17;11.45;;;2.17;;
21862;SDS011;11096;51.338;12.524;2023-03-13T02:04:44;5.75;;;2.90;;
21862;SDS011;11096;51.338;12.524;2023-03-13T02:07:46;12.95;;;2.42;;
21862;SDS011;11096;51.338;12.524;2023-03-13T02:10:07;10.20;;;2.70;;
21862;SDS011;11096;51.338;12.524;2023-03-13T02:12:36;14.15;;;2.70;;
21862;SDS011;11096;51.338;12.524;2023-03-13T02:17:41;11.02;;;2.67;;
21862;SDS011;11096;51.338;12.524;2023-03-13T02:20:08;15.57;;;3.20;;
21862;SDS011;11096;51.338;12.524;2023-03-13T02:22:51;9.38;;;2.72;;
21862;SDS011;11096;51.338;12.524;2023-03-13T02:27:59;14.93;;;3.25;;
21862;SDS011;11096;51.338;12.524;2023-03-13T02:30:29;8.70;;;2.60;;
21862;SDS011;11096;51.338;12.524;2023-03-13T02:32:55;11.73;;;2.95;;
21862;SDS011;11096;51.338;12.524;2023-03-13T02:35:21;9.02;;;2.05;;
21862;SDS011;11096;51.338;12.524;2023-03-13T02:37:49;17.05;;;3.33;;
21862;SDS011;11096;51.338;12.524;2023-03-13T02:40:22;10.55;;;2.97;;
21862;SDS011;11096;51.338;12.524;2023-03-13T02:42:51;13.25;;;2.30;;
21862;SDS011;11096;51.338;12.524;2023-03-13T02:45:18;9.40;;;2.70;;
21862;SDS011;11096;51.338;12.524;2023-03-13T02:47:44;8.88;;;2.28;;
21862;SDS011;11096;51.338;12.524;2023-03-13T02:50:09;9.77;;;2.70;;
21862;SDS011;11096;51.338;12.524;2023-03-13T02:52:37;14.23;;;2.58;;
21862;SDS011;11096;51.338;12.524;2023-03-13T02:55:09;15.82;;;2.45;;
21862;SDS011;11096;51.338;12.524;2023-03-13T02:57:57;8.90;;;2.38;;
21862;SDS011;11096;51.338;12.524;2023-03-13T03:00:23;12.95;;;3.00;;
21862;SDS011;11096;51.338;12.524;2023-03-13T03:02:51;16.15;;;2.95;;
21862;SDS011;11096;51.338;12.524;2023-03-13T03:05:18;21.38;;;2.97;;
21862;SDS011;11096;51.338;12.524;2023-03-13T03:07:43;14.45;;;2.28;;
21862;SDS011;11096;51.338;12.524;2023-03-13T03:10:09;13.05;;;2.40;;
21862;SDS011;11096;51.338;12.524;2023-03-13T03:12:35;11.88;;;2.83;;
21862;SDS011;11096;51.338;12.524;2023-03-13T03:15:01;11.98;;;2.33;;
21862;SDS011;11096;51.338;12.524;2023-03-13T03:17:28;12.00;;;2.40;;
21862;SDS011;11096;51.338;12.524;2023-03-13T03:19:54;12.02;;;2.58;;
21862;SDS011;11096;51.338;12.524;2023-03-13T03:22:19;8.52;;;2.42;;
21862;SDS011;11096;51.338;12.524;2023-03-13T03:24:45;15.77;;;2.88;;
21862;SDS011;11096;51.338;12.524;2023-03-13T03:27:10;12.73;;;2.42;;
21862;SDS011;11096;51.338;12.524;2023-03-13T03:29:35;12.27;;;2.80;;
21862;SDS011;11096;51.338;12.524;2023-03-13T03:32:01;13.05;;;2.60;;
21862;SDS011;11096;51.338;12.524;2023-03-13T03:34:26;16.48;;;2.53;;
21862;SDS011;11096;51.338;12.524;2023-03-13T03:36:51;7.60;;;2.17;;
21862;SDS011;11096;51.338;12.524;2023-03-13T03:39:17;8.43;;;2.40;;
21862;SDS011;11096;51.338;12.524;2023-03-13T03:41:42;12.63;;;2.40;;
21862;SDS011;11096;51.338;12.524;2023-03-13T03:44:08;15.15;;;2.83;;
21862;SDS011;11096;51.338;12.524;2023-03-13T03:46:33;11.23;;;1.80;;
21862;SDS011;11096;51.338;12.524;2023-03-13T03:48:58;10.35;;;2.33;;
21862;SDS011;11096;51.338;12.524;2023-03-13T03:51:24;12.68;;;2.47;;
21862;SDS011;11096;51.338;12.524;2023-03-13T03:53:49;7.65;;;1.92;;
21862;SDS011;11096;51.338;12.524;2023-03-13T03:56:15;10.32;;;2.15;;
21862;SDS011;11096;51.338;12.524;2023-03-13T03:58:40;14.30;;;2.72;;
21862;SDS011;11096;51.338;12.524;2023-03-13T04:01:06;10.27;;;2.50;;
21862;SDS011;11096;51.338;12.524;2023-03-13T04:03:31;12.63;;;2.38;;
21862;SDS011;11096;51.338;12.524;2023-03-13T04:05:57;9.80;;;2.85;;
21862;SDS011;11096;51.338;12.524;2023-03-13T04:08:22;11.85;;;3.05;;
21862;SDS011;11096;51.338;12.524;2023-03-13T04:10:48;9.32;;;2.53;;
21862;SDS011;11096;51.338;12.524;2023-03-13T04:13:13;11.40;;;2.78;;
21862;SDS011;11096;51.338;12.524;2023-03-13T04:15:39;14.48;;;3.40;;
21862;SDS011;11096;51.338;12.524;2023-03-13T04:18:05;6.60;;;2.58;;
21862;SDS011;11096;51.338;12.524;2023-03-13T04:20:30;9.50;;;2.25;;
21862;SDS011;11096;51.338;12.524;2023-03-13T04:22:56;12.18;;;2.67;;
21862;SDS011;11096;51.338;12.524;2023-03-13T04:25:21;17.98;;;3.08;;
21862;SDS011;11096;51.338;12.524;2023-03-13T04:27:47;13.05;;;2.45;;
21862;SDS011;11096;51.338;12.524;2023-03-13T04:30:12;12.95;;;2.40;;
21862;SDS011;11096;51.338;12.524;2023-03-13T04:32:38;9.90;;;2.47;;
21862;SDS011;11096;51.338;12.524;2023-03-13T04:35:03;13.02;;;2.90;;
21862;SDS011;11096;51.338;12.524;2023-03-13T04:37:29;8.57;;;1.92;;
21862;SDS011;11096;51.338;12.524;2023-03-13T04:39:54;6.28;;;2.13;;
21862;SDS011;11096;51.338;12.524;2023-03-13T04:42:20;11.80;;;3.20;;
21862;SDS011;11096;51.338;12.524;2023-03-13T04:44:45;13.10;;;2.95;;
21862;SDS011;11096;51.338;12.524;2023-03-13T04:47:10;8.80;;;2.25;;
21862;SDS011;11096;51.338;12.524;2023-03-13T04:49:36;15.55;;;2.75;;
21862;SDS011;11096;51.338;12.524;2023-03-13T04:52:01;8.85;;;2.05;;
21862;SDS011;11096;51.338;12.524;2023-03-13T04:54:27;12.05;;;2.42;;
21862;SDS011;11096;51.338;12.524;2023-03-13T04:56:52;15.00;;;2.33;;
21862;SDS011;11096;51.338;12.524;2023-03-13T04:59:17;8.95;;;1.98;;
21862;SDS011;11096;51.338;12.524;2023-03-13T05:01:43;12.80;;;2.67;;
21862;SDS011;11096;51.338;12.524;2023-03-13T05:04:09;21.85;;;2.78;;
21862;SDS011;11096;51.338;12.524;2023-03-13T05:06:34;8.80;;;2.30;;
21862;SDS011;11096;51.338;12.524;2023-03-13T05:09:01;11.77;;;2.15;;
21862;SDS011;11096;51.338;12.524;2023-03-13T05:11:27;10.90;;;2.38;;
21862;SDS011;11096;51.338;12.524;2023-03-13T05:13:52;7.15;;;2.03;;
21862;SDS011;11096;51.338;12.524;2023-03-13T05:16:18;14.45;;;2.55;;
21862;SDS011;11096;51.338;12.524;2023-03-13T05:18:43;13.60;;;3.28;;
21862;SDS011;11096;51.338;12.524;2023-03-13T05:21:09;7.80;;;2.30;;
21862;SDS011;11096;51.338;12.524;2023-03-13T05:23:35;10.20;;;2.20;;
21862;SDS011;11096;51.338;12.524;2023-03-13T05:26:00;11.32;;;2.72;;
21862;SDS011;11096;51.338;12.524;2023-03-13T05:28:26;7.57;;;2.15;;
21862;SDS011;11096;51.338;12.524;2023-03-13T05:30:51;12.55;;;2.63;;
21862;SDS011;11096;51.338;12.524;2023-03-13T05:33:17;12.27;;;3.08;;
21862;SDS011;11096;51.338;12.524;2023-03-13T05:35:43;5.70;;;1.67;;
21862;SDS011;11096;51.338;12.524;2023-03-13T05:38:09;12.60;;;2.60;;
21862;SDS011;11096;51.338;12.524;2023-03-13T05:40:35;7.93;;;2.28;;
21862;SDS011;11096;51.338;12.524;2023-03-13T05:43:01;11.30;;;2.17;;
21862;SDS011;11096;51.338;12.524;2023-03-13T05:45:27;7.38;;;1.80;;
21862;SDS011;11096;51.338;12.524;2023-03-13T05:47:52;12.55;;;2.58;;
21862;SDS011;11096;51.338;12.524;2023-03-13T05:50:18;8.45;;;2.03;;
21862;SDS011;11096;51.338;12.524;2023-03-13T05:52:43;7.65;;;2.08;;
21862;SDS011;11096;51.338;12.524;2023-03-13T05:55:08;6.93;;;2.13;;
21862;SDS011;11096;51.338;12.524;2023-03-13T05:57:34;11.43;;;2.00;;
21862;SDS011;11096;51.338;12.524;2023-03-13T05:59:59;11.40;;;2.10;;
21862;SDS011;11096;51.338;12.524;2023-03-13T06:02:25;9.65;;;1.95;;
21862;SDS011;11096;51.338;12.524;2023-03-13T06:04:51;13.98;;;2.63;;
21862;SDS011;11096;51.338;12.524;2023-03-13T06:07:16;8.40;;;1.85;;
21862;SDS011;11096;51.338;12.524;2023-03-13T06:09:41;12.10;;;2.47;;
21862;SDS011;11096;51.338;12.524;2023-03-13T06:12:07;12.68;;;2.10;;
21862;SDS011;11096;51.338;12.524;2023-03-13T06:14:34;9.18;;;1.85;;
21862;SDS011;11096;51.338;12.524;2023-03-13T06:17:00;9.85;;;2.42;;
21862;SDS011;11096;51.338;12.524;2023-03-13T06:19:25;11.80;;;2.55;;
21862;SDS011;11096;51.338;12.524;2023-03-13T06:21:50;15.43;;;2.60;;
21862;SDS011;11096;51.338;12.524;2023-03-13T06:24:16;12.40;;;3.15;;
21862;SDS011;11096;51.338;12.524;2023-03-13T06:26:42;11.52;;;2.55;;
21862;SDS011;11096;51.338;12.524;2023-03-13T06:29:07;12.93;;;2.63;;
21862;SDS011;11096;51.338;12.524;2023-03-13T06:31:34;9.02;;;2.72;;
21862;SDS011;11096;51.338;12.524;2023-03-13T06:33:59;18.98;;;3.20;;
21862;SDS011;11096;51.338;12.524;2023-03-13T06:36:24;11.85;;;2.70;;
21862;SDS011;11096;51.338;12.524;2023-03-13T06:38:50;21.83;;;2.88;;
21862;SDS011;11096;51.338;12.524;2023-03-13T06:41:15;15.88;;;3.83;;
21862;SDS011;11096;51.338;12.524;2023-03-13T06:43:41;15.65;;;2.95;;
21862;SDS011;11096;51.338;12.524;2023-03-13T06:46:06;16.73;;;2.95;;
21862;SDS011;11096;51.338;12.524;2023-03-13T06:48:33;13.45;;;3.30;;
21862;SDS011;11096;51.338;12.524;2023-03-13T06:50:58;16.75;;;3.20;;
21862;SDS011;11096;51.338;12.524;2023-03-13T06:53:24;16.98;;;3.45;;
21862;SDS011;11096;51.338;12.524;2023-03-13T06:55:49;16.45;;;3.78;;
21862;SDS011;11096;51.338;12.524;2023-03-13T06:58:15;20.55;;;3.83;;
21862;SDS011;11096;51.338;12.524;2023-03-13T07:00:41;10.68;;;3.83;;
21862;SDS011;11096;51.338;12.524;2023-03-13T07:03:08;22.52;;;3.30;;
21862;SDS011;11096;51.338;12.524;2023-03-13T07:05:35;13.55;;;3.42;;
21862;SDS011;11096;51.338;12.524;2023-03-13T07:08:01;13.43;;;3.22;;
21862;SDS011;11096;51.338;12.524;2023-03-13T07:10:26;13.88;;;3.33;;
21862;SDS011;11096;51.338;12.524;2023-03-13T07:12:52;17.60;;;3.05;;
21862;SDS011;11096;51.338;12.524;2023-03-13T07:15:17;20.40;;;3.50;;
21862;SDS011;11096;51.338;12.524;2023-03-13T07:17:43;17.10;;;2.92;;
21862;SDS011;11096;51.338;12.524;2023-03-13T07:20:08;12.73;;;2.70;;
21862;SDS011;11096;51.338;12.524;2023-03-13T07:22:35;9.43;;;3.10;;
21862;SDS011;11096;51.338;12.524;2023-03-13T07:25:01;16.98;;;2.90;;
21862;SDS011;11096;51.338;12.524;2023-03-13T07:27:27;11.98;;;2.22;;
21862;SDS011;11096;51.338;12.524;2023-03-13T07:29:53;8.02;;;2.28;;
21862;SDS011;11096;51.338;12.524;2023-03-13T07:32:18;15.45;;;2.83;;
21862;SDS011;11096;51.338;12.524;2023-03-13T07:34:43;9.77;;;2.88;;
21862;SDS011;11096;51.338;12.524;2023-03-13T07:37:10;12.50;;;2.53;;
21862;SDS011;11096;51.338;12.524;2023-03-13T07:39:36;11.00;;;2.58;;
21862;SDS011;11096;51.338;12.524;2023-03-13T07:42:01;19.02;;;3.13;;
21862;SDS011;11096;51.338;12.524;2023-03-13T07:44:27;15.32;;;2.70;;
21862;SDS011;11096;51.338;12.524;2023-03-13T07:46:52;11.10;;;2.10;;
21862;SDS011;11096;51.338;12.524;2023-03-13T07:49:18;4.53;;;1.98;;
21862;SDS011;11096;51.338;12.524;2023-03-13T07:51:43;7.80;;;2.22;;
21862;SDS011;11096;51.338;12.524;2023-03-13T07:54:11;10.60;;;2.40;;
21862;SDS011;11096;51.338;12.524;2023-03-13T07:56:37;10.38;;;1.90;;
21862;SDS011;11096;51.338;12.524;2023-03-13T07:59:03;8.23;;;1.80;;
21862;SDS011;11096;51.338;12.524;2023-03-13T08:01:28;11.73;;;2.15;;
21862;SDS011;11096;51.338;12.524;2023-03-13T08:03:54;8.15;;;1.73;;
21862;SDS011;11096;51.338;12.524;2023-03-13T08:06:23;10.35;;;1.80;;
21862;SDS011;11096;51.338;12.524;2023-03-13T08:08:50;6.35;;;1.63;;
21862;SDS011;11096;51.338;12.524;2023-03-13T08:11:20;4.72;;;1.48;;
21862;SDS011;11096;51.338;12.524;2023-03-13T08:13:49;5.40;;;1.55;;
21862;SDS011;11096;51.338;12.524;2023-03-13T08:16:15;7.57;;;1.30;;
21862;SDS011;11096;51.338;12.524;2023-03-13T08:18:44;8.27;;;1.45;;
21862;SDS011;11096;51.338;12.524;2023-03-13T08:21:12;2.97;;;1.30;;
21862;SDS011;11096;51.338;12.524;2023-03-13T08:23:39;4.22;;;1.20;;
21862;SDS011;11096;51.338;12.524;2023-03-13T08:28:32;2.03;;;0.98;;
21862;SDS011;11096;51.338;12.524;2023-03-13T08:30:58;3.42;;;1.05;;
21862;SDS011;11096;51.338;12.524;2023-03-13T08:33:23;2.42;;;0.93;;
21862;SDS011;11096;51.338;12.524;2023-03-13T08:35:49;3.22;;;1.20;;
21862;SDS011;11096;51.338;12.524;2023-03-13T08:38:14;2.85;;;0.88;;
21862;SDS011;11096;51.338;12.524;2023-03-13T08:40:40;5.15;;;1.02;;
21862;SDS011;11096;51.338;12.524;2023-03-13T08:43:05;2.53;;;1.50;;
21862;SDS011;11096;51.338;12.524;2023-03-13T08:45:30;2.50;;;1.40;;
21862;SDS011;11096;51.338;12.524;2023-03-13T08:47:56;5.57;;;1.13;;
21862;SDS011;11096;51.338;12.524;2023-03-13T08:50:21;2.35;;;1.10;;
21862;SDS011;11096;51.338;12.524;2023-03-13T08:52:46;2.35;;;1.08;;
21862;SDS011;11096;51.338;12.524;2023-03-13T08:55:12;1.90;;;1.02;;
21862;SDS011;11096;51.338;12.524;2023-03-13T08:57:37;6.88;;;1.52;;
21862;SDS011;11096;51.338;12.524;2023-03-13T09:00:03;4.05;;;1.38;;
21862;SDS011;11096;51.338;12.524;2023-03-13T09:02:30;2.10;;;0.90;;
21862;SDS011;11096;51.338;12.524;2023-03-13T09:04:56;2.22;;;1.23;;
21862;SDS011;11096;51.338;12.524;2023-03-13T09:07:21;6.43;;;1.20;;
21862;SDS011;11096;51.338;12.524;2023-03-13T09:09:47;7.50;;;1.27;;
21862;SDS011;11096;51.338;12.524;2023-03-13T09:12:12;3.97;;;1.25;;
21862;SDS011;11096;51.338;12.524;2023-03-13T09:14:37;4.53;;;1.23;;
21862;SDS011;11096;51.338;12.524;2023-03-13T09:17:03;3.13;;;1.15;;
21862;SDS011;11096;51.338;12.524;2023-03-13T09:19:28;2.13;;;1.30;;
21862;SDS011;11096;51.338;12.524;2023-03-13T09:21:54;3.80;;;1.27;;
21862;SDS011;11096;51.338;12.524;2023-03-13T09:24:19;2.17;;;1.25;;
21862;SDS011;11096;51.338;12.524;2023-03-13T09:26:45;2.13;;;1.92;;
21862;SDS011;11096;51.338;12.524;2023-03-13T09:29:10;5.60;;;1.45;;
21862;SDS011;11096;51.338;12.524;2023-03-13T09:31:36;3.97;;;0.90;;
21862;SDS011;11096;51.338;12.524;2023-03-13T09:34:02;3.13;;;0.90;;
21862;SDS011;11096;51.338;12.524;2023-03-13T09:36:28;3.15;;;1.08;;
21862;SDS011;11096;51.338;12.524;2023-03-13T09:38:55;2.92;;;1.27;;
21862;SDS011;11096;51.338;12.524;2023-03-13T09:41:37;4.53;;;1.02;;
21862;SDS011;11096;51.338;12.524;2023-03-13T09:44:31;2.50;;;1.10;;
21862;SDS011;11096;51.338;12.524;2023-03-13T09:47:23;3.03;;;1.10;;
21862;SDS011;11096;51.338;12.524;2023-03-13T09:50:55;2.88;;;1.00;;
21862;SDS011;11096;51.338;12.524;2023-03-13T09:53:06;2.40;;;1.10;;
21862;SDS011;11096;51.338;12.524;2023-03-13T09:55:39;2.88;;;1.13;;
21862;SDS011;11096;51.338;12.524;2023-03-13T10:00:53;1.27;;;0.82;;
21862;SDS011;11096;51.338;12.524;2023-03-13T10:03:26;2.95;;;0.98;;
21862;SDS011;11096;51.338;12.524;2023-03-13T10:05:55;2.90;;;1.13;;
21862;SDS011;11096;51.338;12.524;2023-03-13T10:08:24;3.97;;;1.02;;
21862;SDS011;11096;51.338;12.524;2023-03-13T10:13:43;1.38;;;1.00;;
21862;SDS011;11096;51.338;12.524;2023-03-13T10:16:14;2.65;;;1.30;;
21862;SDS011;11096;51.338;12.524;2023-03-13T10:18:46;1.70;;;1.10;;
21862;SDS011;11096;51.338;12.524;2023-03-13T10:21:17;3.05;;;0.88;;
21862;SDS011;11096;51.338;12.524;2023-03-13T10:23:59;0.75;;;0.68;;
21862;SDS011;11096;51.338;12.524;2023-03-13T10:26:36;2.25;;;1.20;;
21862;SDS011;11096;51.338;12.524;2023-03-13T10:31:53;2.83;;;1.20;;
21862;SDS011;11096;51.338;12.524;2023-03-13T10:34:22;1.33;;;0.95;;
21862;SDS011;11096;51.338;12.524;2023-03-13T10:36:50;2.97;;;0.88;;
21862;SDS011;11096;51.338;12.524;2023-03-13T10:39:21;2.10;;;1.13;;
21862;SDS011;11096;51.338;12.524;2023-03-13T10:41:48;1.30;;;0.95;;
21862;SDS011;11096;51.338;12.524;2023-03-13T10:44:15;1.70;;;0.85;;
21862;SDS011;11096;51.338;12.524;2023-03-13T10:46:43;3.88;;;1.02;;
21862;SDS011;11096;51.338;12.524;2023-03-13T10:51:39;0.80;;;0.75;;
21862;SDS011;11096;51.338;12.524;2023-03-13T10:54:22;1.88;;;1.00;;
21862;SDS011;11096;51.338;12.524;2023-03-13T10:57:06;0.95;;;0.82;;
21862;SDS011;11096;51.338;12.524;2023-03-13T10:59:51;0.80;;;0.70;;
21862;SDS011;11096;51.338;12.524;2023-03-13T11:02:30;0.82;;;0.60;;
21862;SDS011;11096;51.338;12.524;2023-03-13T11:05:01;1.23;;;0.50;;
21862;SDS011;11096;51.338;12.524;2023-03-13T11:07:46;0.95;;;0.70;;
21862;SDS011;11096;51.338;12.524;2023-03-13T11:10:19;1.15;;;1.10;;
21862;SDS011;11096;51.338;12.524;2023-03-13T11:12:49;1.08;;;0.70;;
21862;SDS011;11096;51.338;12.524;2023-03-13T11:15:20;0.98;;;0.85;;
21862;SDS011;11096;51.338;12.524;2023-03-13T11:20:34;0.90;;;0.73;;
21862;SDS011;11096;51.338;12.524;2023-03-13T11:29:13;1.25;;;0.75;;
21862;SDS011;11096;51.338;12.524;2023-03-13T11:31:28;1.08;;;0.80;;
21862;SDS011;11096;51.338;12.524;2023-03-13T11:34:01;1.00;;;0.77;;
21862;SDS011;11096;51.338;12.524;2023-03-13T11:56:57;4.30;;;0.80;;
21862;SDS011;11096;51.338;12.524;2023-03-13T12:02:17;0.93;;;0.77;;
21862;SDS011;11096;51.338;12.524;2023-03-13T12:05:00;1.55;;;0.57;;
21862;SDS011;11096;51.338;12.524;2023-03-13T12:10:28;0.90;;;0.52;;
21862;SDS011;11096;51.338;12.524;2023-03-13T12:15:29;0.95;;;0.45;;
21862;SDS011;11096;51.338;12.524;2023-03-13T12:18:01;0.75;;;0.63;;
21862;SDS011;11096;51.338;12.524;2023-03-13T12:23:20;0.32;;;0.32;;
21862;SDS011;11096;51.338;12.524;2023-03-13T12:30:51;2.25;;;0.40;;
21862;SDS011;11096;51.338;12.524;2023-03-13T12:33:25;0.95;;;0.60;;
21862;SDS011;11096;51.338;12.524;2023-03-13T12:38:53;2.42;;;0.63;;
21862;SDS011;11096;51.338;12.524;2023-03-13T12:44:08;0.50;;;0.50;;
21862;SDS011;11096;51.338;12.524;2023-03-13T12:54:58;1.40;;;0.55;;
21862;SDS011;11096;51.338;12.524;2023-03-13T13:00:19;0.75;;;0.47;;
21862;SDS011;11096;51.338;12.524;2023-03-13T13:03:00;2.13;;;0.80;;
21862;SDS011;11096;51.338;12.524;2023-03-13T13:05:26;0.98;;;0.60;;
21862;SDS011;11096;51.338;12.524;2023-03-13T13:07:53;1.10;;;0.65;;
21862;SDS011;11096;51.338;12.524;2023-03-13T13:10:21;1.90;;;0.60;;
21862;SDS011;11096;51.338;12.524;2023-03-13T13:15:37;1.13;;;0.80;;
21862;SDS011;11096;51.338;12.524;2023-03-13T13:20:43;3.40;;;0.82;;
21862;SDS011;11096;51.338;12.524;2023-03-13T13:23:27;0.82;;;0.77;;
21862;SDS011;11096;51.338;12.524;2023-03-13T13:25:57;0.77;;;0.70;;
21862;SDS011;11096;51.338;12.524;2023-03-13T13:28:50;0.77;;;0.65;;
21862;SDS011;11096;51.338;12.524;2023-03-13T13:34:06;2.08;;;0.57;;
21862;SDS011;11096;51.338;12.524;2023-03-13T13:36:38;0.85;;;0.77;;
21862;SDS011;11096;51.338;12.524;2023-03-13T13:39:20;2.80;;;0.77;;
21862;SDS011;11096;51.338;12.524;2023-03-13T13:41:56;4.03;;;1.05;;
21862;SDS011;11096;51.338;12.524;2023-03-13T13:44:28;3.45;;;0.75;;
21862;SDS011;11096;51.338;12.524;2023-03-13T13:46:55;1.58;;;0.88;;
21862;SDS011;11096;51.338;12.524;2023-03-13T13:49:25;1.40;;;0.75;;
21862;SDS011;11096;51.338;12.524;2023-03-13T13:54:32;1.75;;;0.90;;
21862;SDS011;11096;51.338;12.524;2023-03-13T13:57:15;0.90;;;0.50;;
21862;SDS011;11096;51.338;12.524;2023-03-13T13:59:58;4.47;;;0.80;;
21862;SDS011;11096;51.338;12.524;2023-03-13T14:02:30;2.63;;;0.95;;
21862;SDS011;11096;51.338;12.524;2023-03-13T14:05:00;1.10;;;0.95;;
21862;SDS011;11096;51.338;12.524;2023-03-13T14:12:52;4.60;;;0.90;;
21862;SDS011;11096;51.338;12.524;2023-03-13T14:17:48;1.20;;;0.90;;
21862;SDS011;11096;51.338;12.524;2023-03-13T14:20:34;1.83;;;0.80;;
21862;SDS011;11096;51.338;12.524;2023-03-13T14:23:02;3.42;;;0.93;;
21862;SDS011;11096;51.338;12.524;2023-03-13T14:30:51;2.63;;;0.60;;
21862;SDS011;11096;51.338;12.524;2023-03-13T14:33:18;2.42;;;0.90;;
21862;SDS011;11096;51.338;12.524;2023-03-13T14:35:44;3.30;;;1.10;;
21862;SDS011;11096;51.338;12.524;2023-03-13T14:38:21;3.55;;;1.02;;
21862;SDS011;11096;51.338;12.524;2023-03-13T14:40:48;2.08;;;1.05;;
21862;SDS011;11096;51.338;12.524;2023-03-13T14:45:56;1.48;;;0.80;;
21862;SDS011;11096;51.338;12.524;2023-03-13T14:48:31;1.83;;;0.88;;
21862;SDS011;11096;51.338;12.524;2023-03-13T14:51:02;1.45;;;0.80;;
21862;SDS011;11096;51.338;12.524;2023-03-13T14:53:33;1.13;;;0.95;;
21862;SDS011;11096;51.338;12.524;2023-03-13T14:56:09;1.30;;;0.85;;
21862;SDS011;11096;51.338;12.524;2023-03-13T14:58:39;1.00;;;0.80;;
21862;SDS011;11096;51.338;12.524;2023-03-13T15:01:12;2.08;;;1.00;;
21862;SDS011;11096;51.338;12.524;2023-03-13T15:03:58;2.90;;;1.20;;
21862;SDS011;11096;51.338;12.524;2023-03-13T15:06:24;1.48;;;1.15;;
21862;SDS011;11096;51.338;12.524;2023-03-13T15:11:40;1.20;;;0.80;;
21862;SDS011;11096;51.338;12.524;2023-03-13T15:17:10;1.20;;;0.77;;
21862;SDS011;11096;51.338;12.524;2023-03-13T15:19:38;1.17;;;0.93;;
21862;SDS011;11096;51.338;12.524;2023-03-13T15:22:04;2.67;;;1.10;;
21862;SDS011;11096;51.338;12.524;2023-03-13T15:24:29;2.65;;;0.93;;
21862;SDS011;11096;51.338;12.524;2023-03-13T15:26:54;1.38;;;1.13;;
21862;SDS011;11096;51.338;12.524;2023-03-13T15:29:20;1.88;;;1.02;;
21862;SDS011;11096;51.338;12.524;2023-03-13T15:31:45;1.95;;;1.33;;
21862;SDS011;11096;51.338;12.524;2023-03-13T15:34:11;1.45;;;0.98;;
21862;SDS011;11096;51.338;12.524;2023-03-13T15:36:38;1.67;;;1.13;;
21862;SDS011;11096;51.338;12.524;2023-03-13T15:39:15;1.75;;;1.10;;
21862;SDS011;11096;51.338;12.524;2023-03-13T15:41:44;7.53;;;1.30;;
21862;SDS011;11096;51.338;12.524;2023-03-13T15:44:09;1.02;;;0.93;;
21862;SDS011;11096;51.338;12.524;2023-03-13T15:46:35;1.45;;;1.10;;
21862;SDS011;11096;51.338;12.524;2023-03-13T15:49:01;1.00;;;0.90;;
21862;SDS011;11096;51.338;12.524;2023-03-13T15:51:26;1.55;;;0.98;;
21862;SDS011;11096;51.338;12.524;2023-03-13T15:53:52;2.58;;;1.00;;
21862;SDS011;11096;51.338;12.524;2023-03-13T15:56:18;2.75;;;1.30;;
21862;SDS011;11096;51.338;12.524;2023-03-13T15:58:47;1.48;;;1.00;;
21862;SDS011;11096;51.338;12.524;2023-03-13T16:01:14;3.25;;;1.15;;
21862;SDS011;11096;51.338;12.524;2023-03-13T16:03:41;2.60;;;1.17;;
21862;SDS011;11096;51.338;12.524;2023-03-13T16:06:14;2.55;;;1.08;;
21862;SDS011;11096;51.338;12.524;2023-03-13T16:08:44;1.52;;;1.13;;
21862;SDS011;11096;51.338;12.524;2023-03-13T16:11:11;3.15;;;1.08;;
21862;SDS011;11096;51.338;12.524;2023-03-13T16:13:39;2.17;;;1.42;;
21862;SDS011;11096;51.338;12.524;2023-03-13T16:16:20;1.60;;;1.27;;
21862;SDS011;11096;51.338;12.524;2023-03-13T16:18:48;1.30;;;1.20;;
21862;SDS011;11096;51.338;12.524;2023-03-13T16:21:16;2.05;;;1.20;;
21862;SDS011;11096;51.338;12.524;2023-03-13T16:23:47;2.33;;;1.65;;
21862;SDS011;11096;51.338;12.524;2023-03-13T16:26:22;1.85;;;0.90;;
21862;SDS011;11096;51.338;12.524;2023-03-13T16:28:50;3.03;;;1.00;;
21862;SDS011;11096;51.338;12.524;2023-03-13T16:33:46;2.53;;;1.27;;